메인 페이지
METAR-TAF:

METAR-TAF

공항 :

Porto Seguro, 바이아, 브라질

위도: 16-26S, 경도: 039-04W, 고도: 51m

현재 날씨관측

예보는 33분 전, 21:00시(UTC)에 발표되었습니다.
여러 방향의 바람 3kt
온도 24°C
습도 74%
기압 1020 hPa
시정 10km 이상
고도 2500ft 상공 구름 조금

METAR: SBPS 202100Z VRB03KT 9999 FEW025 24/19 Q1020

시각: 18:33 (21:33 UTC)

예보

예보는 6 시간 18분 전, 15:15시(UTC)에 발표되었습니다.
예보 대상 시간: 20일 18시부터 21일 18시까지 (UTC)
10kt
시정 10km 이상
고도 2500ft 상공 구름 보통
전환 중
21일 00시부터 21일 02시까지 (UTC)
서남서5kt
고도 2000ft 상공 구름 보통
전환 중
21일 13시부터 21일 15시까지 (UTC)
10kt
고도 2500ft 상공 구름 보통

TAF: SBPS 201515Z 2018/2118 10010KT 9999 SCT025 TN20/2107Z TX27/2115Z BECMG 2100/2102 25005KT SCT020 BECMG 2113/2115 09010KT SCT025 RMK PHD

4,000개 이상의 공항 관측 자료 및 예보 (METAR 및 TAF 보고).

지도상에서 검색 가능한 기상관측소가 노란 점과 빨간 점으로 표시되어 있습니다.

기상관측소 명을 보려면 표시 위로 마우스를 이동하세요.

날씨 관측과 예보를 보려면 클릭하세요.

지도 변경 : 확대하려면 엑스 표시가 있는 녹색 버튼, 축소하려면 빼기 표시가 있는 녹색 버튼, 다음 페이지의 지도를 보려면 녹색 화살표를 클릭하세요.


METAR-TAF: